sensor_id;sensor_type;location;lat;lon;timestamp;pressure;altitude;pressure_sealevel;temperature;humidity
6938;BME280;40040;42.706;23.372;2023-04-27T00:00:52;146333.31;;;8.75;79.56
6938;BME280;40040;42.706;23.372;2023-04-27T00:03:18;146403.56;;;9.04;79.88
6938;BME280;40040;42.706;23.372;2023-04-27T00:05:45;146377.69;;;8.93;79.88
6938;BME280;40040;42.706;23.372;2023-04-27T00:08:12;146390.00;;;8.98;79.23
6938;BME280;40040;42.706;23.372;2023-04-27T00:10:41;146388.75;;;8.98;79.29
6938;BME280;40040;42.706;23.372;2023-04-27T00:13:08;146354.25;;;8.84;79.57
6938;BME280;40040;42.706;23.372;2023-04-27T00:15:34;146350.56;;;8.82;79.45
6938;BME280;40040;42.706;23.372;2023-04-27T00:18:01;146339.50;;;8.78;79.90
6938;BME280;40040;42.706;23.372;2023-04-27T00:20:28;146293.94;;;8.59;79.83
6938;BME280;40040;42.706;23.372;2023-04-27T00:22:55;146335.81;;;8.76;79.44
6938;BME280;40040;42.706;23.372;2023-04-27T00:25:22;146318.56;;;8.69;79.40
6938;BME280;40040;42.706;23.372;2023-04-27T00:27:50;146303.75;;;8.63;79.53
6938;BME280;40040;42.706;23.372;2023-04-27T00:30:17;146275.44;;;8.52;79.95
6938;BME280;40040;42.706;23.372;2023-04-27T00:32:44;146258.19;;;8.45;80.41
6938;BME280;40040;42.706;23.372;2023-04-27T00:35:11;146244.66;;;8.39;80.71
6938;BME280;40040;42.706;23.372;2023-04-27T00:37:38;146252.03;;;8.42;80.67
6938;BME280;40040;42.706;23.372;2023-04-27T00:40:06;146215.09;;;8.27;80.56
6938;BME280;40040;42.706;23.372;2023-04-27T00:42:33;146234.78;;;8.35;81.52
6938;BME280;40040;42.706;23.372;2023-04-27T00:45:02;146227.41;;;8.32;81.18
6938;BME280;40040;42.706;23.372;2023-04-27T00:47:31;146207.72;;;8.24;81.07
6938;BME280;40040;42.706;23.372;2023-04-27T00:49:58;146175.63;;;8.11;81.80
6938;BME280;40040;42.706;23.372;2023-04-27T00:52:25;146167.00;;;8.08;82.36
6938;BME280;40040;42.706;23.372;2023-04-27T00:54:52;146155.94;;;8.03;82.76
6938;BME280;40040;42.706;23.372;2023-04-27T00:57:19;146158.38;;;8.04;82.46
6938;BME280;40040;42.706;23.372;2023-04-27T00:59:47;146158.38;;;8.04;82.97
6938;BME280;40040;42.706;23.372;2023-04-27T01:02:16;146155.94;;;8.03;82.82
6938;BME280;40040;42.706;23.372;2023-04-27T01:04:42;146141.16;;;7.97;82.80
6938;BME280;40040;42.706;23.372;2023-04-27T01:07:09;146153.44;;;8.02;83.17
6938;BME280;40040;42.706;23.372;2023-04-27T01:09:36;146151.00;;;8.01;83.41
6938;BME280;40040;42.706;23.372;2023-04-27T01:12:03;146095.63;;;7.78;83.36
6938;BME280;40040;42.706;23.372;2023-04-27T01:14:30;146075.94;;;7.70;83.35
6938;BME280;40040;42.706;23.372;2023-04-27T01:16:57;146103.00;;;7.81;83.69
6938;BME280;40040;42.706;23.372;2023-04-27T01:19:25;146071.00;;;7.68;84.06
6938;BME280;40040;42.706;23.372;2023-04-27T01:21:53;146063.59;;;7.65;84.12
6938;BME280;40040;42.706;23.372;2023-04-27T01:24:21;146069.75;;;7.68;84.60
6938;BME280;40040;42.706;23.372;2023-04-27T01:26:47;146067.31;;;7.67;84.31
6938;BME280;40040;42.706;23.372;2023-04-27T01:29:16;146059.91;;;7.64;84.52
6938;BME280;40040;42.706;23.372;2023-04-27T01:31:43;146056.22;;;7.62;84.68
6938;BME280;40040;42.706;23.372;2023-04-27T01:34:10;146025.44;;;7.50;84.46
6938;BME280;40040;42.706;23.372;2023-04-27T01:36:37;146046.34;;;7.58;84.57
6938;BME280;40040;42.706;23.372;2023-04-27T01:39:04;145952.84;;;7.20;84.53
6938;BME280;40040;42.706;23.372;2023-04-27T01:41:35;146029.16;;;7.51;84.66
6938;BME280;40040;42.706;23.372;2023-04-27T01:44:01;146023.00;;;7.49;84.91
6938;BME280;40040;42.706;23.372;2023-04-27T01:46:28;146010.69;;;7.44;85.51
6938;BME280;40040;42.706;23.372;2023-04-27T01:48:55;146008.19;;;7.43;85.01
6938;BME280;40040;42.706;23.372;2023-04-27T01:51:22;146004.53;;;7.41;85.38
6938;BME280;40040;42.706;23.372;2023-04-27T01:53:49;146008.19;;;7.43;84.82
6938;BME280;40040;42.706;23.372;2023-04-27T01:56:15;145998.38;;;7.39;84.77
6938;BME280;40040;42.706;23.372;2023-04-27T01:58:43;145989.78;;;7.35;84.88
6938;BME280;40040;42.706;23.372;2023-04-27T02:01:10;145990.97;;;7.36;84.56
6938;BME280;40040;42.706;23.372;2023-04-27T02:03:37;145981.16;;;7.32;84.64
6938;BME280;40040;42.706;23.372;2023-04-27T02:06:04;145983.59;;;7.33;84.53
6938;BME280;40040;42.706;23.372;2023-04-27T02:08:31;145959.00;;;7.23;84.50
6938;BME280;40040;42.706;23.372;2023-04-27T02:10:58;145968.88;;;7.27;84.41
6938;BME280;40040;42.706;23.372;2023-04-27T02:13:24;145950.41;;;7.19;84.82
6938;BME280;40040;42.706;23.372;2023-04-27T02:15:53;145941.78;;;7.16;85.25
6938;BME280;40040;42.706;23.372;2023-04-27T02:18:20;145930.72;;;7.11;85.36
6938;BME280;40040;42.706;23.372;2023-04-27T02:20:47;145924.56;;;7.09;84.99
6938;BME280;40040;42.706;23.372;2023-04-27T02:23:14;145909.78;;;7.03;85.54
6938;BME280;40040;42.706;23.372;2023-04-27T02:25:41;145891.34;;;6.95;85.74
6938;BME280;40040;42.706;23.372;2023-04-27T02:28:11;145892.59;;;6.96;85.59
6938;BME280;40040;42.706;23.372;2023-04-27T02:30:38;145840.94;;;6.74;85.91
6938;BME280;40040;42.706;23.372;2023-04-27T02:33:06;145887.66;;;6.94;85.79
6938;BME280;40040;42.706;23.372;2023-04-27T02:35:33;145892.59;;;6.96;85.53
6938;BME280;40040;42.706;23.372;2023-04-27T02:38:00;145896.28;;;6.97;85.20
6938;BME280;40040;42.706;23.372;2023-04-27T02:40:26;145892.59;;;6.96;85.10
6938;BME280;40040;42.706;23.372;2023-04-27T02:42:53;145767.13;;;6.44;85.27
6938;BME280;40040;42.706;23.372;2023-04-27T02:45:20;145867.97;;;6.85;86.07
6938;BME280;40040;42.706;23.372;2023-04-27T02:47:46;145864.28;;;6.84;85.85
6938;BME280;40040;42.706;23.372;2023-04-27T02:50:16;145867.97;;;6.85;86.34
6938;BME280;40040;42.706;23.372;2023-04-27T02:52:43;145856.91;;;6.81;85.77
6938;BME280;40040;42.706;23.372;2023-04-27T02:55:10;145855.66;;;6.80;85.51
6938;BME280;40040;42.706;23.372;2023-04-27T02:57:37;145860.59;;;6.82;85.37
6938;BME280;40040;42.706;23.372;2023-04-27T03:00:06;145811.41;;;6.62;85.07
6938;BME280;40040;42.706;23.372;2023-04-27T03:02:33;145839.69;;;6.74;85.46
6938;BME280;40040;42.706;23.372;2023-04-27T03:05:00;145849.53;;;6.78;85.30
6938;BME280;40040;42.706;23.372;2023-04-27T03:07:30;145850.72;;;6.78;85.90
6938;BME280;40040;42.706;23.372;2023-04-27T03:09:56;145847.06;;;6.77;85.71
6938;BME280;40040;42.706;23.372;2023-04-27T03:12:23;145836.00;;;6.72;85.52
6938;BME280;40040;42.706;23.372;2023-04-27T03:14:50;145833.50;;;6.71;86.34
6938;BME280;40040;42.706;23.372;2023-04-27T03:17:17;145827.38;;;6.69;85.76
6938;BME280;40040;42.706;23.372;2023-04-27T03:19:46;145813.84;;;6.63;86.40
6938;BME280;40040;42.706;23.372;2023-04-27T03:22:12;145821.22;;;6.66;86.34
6938;BME280;40040;42.706;23.372;2023-04-27T03:24:40;145811.41;;;6.62;86.74
6938;BME280;40040;42.706;23.372;2023-04-27T03:27:07;145813.84;;;6.63;86.47
6938;BME280;40040;42.706;23.372;2023-04-27T03:29:34;145772.06;;;6.46;86.63
6938;BME280;40040;42.706;23.372;2023-04-27T03:32:02;145799.06;;;6.57;86.69
6938;BME280;40040;42.706;23.372;2023-04-27T03:34:29;145810.16;;;6.62;86.44
6938;BME280;40040;42.706;23.372;2023-04-27T03:36:56;145784.34;;;6.51;86.90
6938;BME280;40040;42.706;23.372;2023-04-27T03:39:23;145736.38;;;6.32;87.50
6938;BME280;40040;42.706;23.372;2023-04-27T03:41:51;145781.84;;;6.50;87.56
6938;BME280;40040;42.706;23.372;2023-04-27T03:44:18;145775.72;;;6.48;86.94
6938;BME280;40040;42.706;23.372;2023-04-27T03:46:45;145776.97;;;6.48;87.45
6938;BME280;40040;42.706;23.372;2023-04-27T03:49:12;145769.56;;;6.45;86.89
6938;BME280;40040;42.706;23.372;2023-04-27T03:51:38;145763.44;;;6.43;87.11
6938;BME280;40040;42.706;23.372;2023-04-27T03:54:06;145767.13;;;6.44;87.15
6938;BME280;40040;42.706;23.372;2023-04-27T03:56:33;145769.56;;;6.45;87.36
6938;BME280;40040;42.706;23.372;2023-04-27T03:59:02;145772.06;;;6.46;87.10
6938;BME280;40040;42.706;23.372;2023-04-27T04:01:29;145749.91;;;6.37;87.62
6938;BME280;40040;42.706;23.372;2023-04-27T04:03:57;145753.59;;;6.39;86.80
6938;BME280;40040;42.706;23.372;2023-04-27T04:06:25;145726.53;;;6.28;87.09
6938;BME280;40040;42.706;23.372;2023-04-27T04:08:52;145749.91;;;6.37;86.94
6938;BME280;40040;42.706;23.372;2023-04-27T04:11:19;145764.63;;;6.43;87.04
6938;BME280;40040;42.706;23.372;2023-04-27T04:13:46;145757.28;;;6.40;87.42
6938;BME280;40040;42.706;23.372;2023-04-27T04:16:14;145764.63;;;6.43;87.24
6938;BME280;40040;42.706;23.372;2023-04-27T04:18:41;145736.38;;;6.32;86.77
6938;BME280;40040;42.706;23.372;2023-04-27T04:21:08;145754.84;;;6.39;86.87
6938;BME280;40040;42.706;23.372;2023-04-27T04:23:35;145762.19;;;6.42;86.81
6938;BME280;40040;42.706;23.372;2023-04-27T04:26:02;145768.38;;;6.45;86.98
6938;BME280;40040;42.706;23.372;2023-04-27T04:28:30;145776.97;;;6.48;87.21
6938;BME280;40040;42.706;23.372;2023-04-27T04:30:56;145774.50;;;6.47;86.83
6938;BME280;40040;42.706;23.372;2023-04-27T04:33:25;145774.50;;;6.47;86.90
6938;BME280;40040;42.706;23.372;2023-04-27T04:35:52;145780.66;;;6.50;87.00
6938;BME280;40040;42.706;23.372;2023-04-27T04:38:19;145784.34;;;6.51;86.51
6938;BME280;40040;42.706;23.372;2023-04-27T04:40:45;145791.69;;;6.54;86.32
6938;BME280;40040;42.706;23.372;2023-04-27T04:43:12;145789.25;;;6.53;87.01
6938;BME280;40040;42.706;23.372;2023-04-27T04:45:39;145790.47;;;6.54;86.35
6938;BME280;40040;42.706;23.372;2023-04-27T04:48:06;145799.06;;;6.57;86.78
6938;BME280;40040;42.706;23.372;2023-04-27T04:50:34;145773.25;;;6.47;86.35
6938;BME280;40040;42.706;23.372;2023-04-27T04:53:01;145822.47;;;6.67;86.79
6938;BME280;40040;42.706;23.372;2023-04-27T04:55:28;145840.94;;;6.74;87.07
6938;BME280;40040;42.706;23.372;2023-04-27T04:57:54;145860.59;;;6.82;85.47
6938;BME280;40040;42.706;23.372;2023-04-27T05:00:21;145858.16;;;6.81;85.85
6938;BME280;40040;42.706;23.372;2023-04-27T05:02:48;145907.34;;;7.02;84.46
6938;BME280;40040;42.706;23.372;2023-04-27T05:05:15;145895.03;;;6.97;84.65
6938;BME280;40040;42.706;23.372;2023-04-27T05:07:43;145951.63;;;7.20;84.97
6938;BME280;40040;42.706;23.372;2023-04-27T05:10:10;145997.16;;;7.38;85.01
6938;BME280;40040;42.706;23.372;2023-04-27T05:12:37;146005.75;;;7.42;83.83
6938;BME280;40040;42.706;23.372;2023-04-27T05:15:04;146087.00;;;7.75;83.69
6938;BME280;40040;42.706;23.372;2023-04-27T05:17:31;146149.75;;;8.00;81.57
6938;BME280;40040;42.706;23.372;2023-04-27T05:19:58;146176.88;;;8.12;80.97
6938;BME280;40040;42.706;23.372;2023-04-27T05:22:25;146216.34;;;8.28;79.76
6938;BME280;40040;42.706;23.372;2023-04-27T05:24:53;146224.97;;;8.31;79.84
6938;BME280;40040;42.706;23.372;2023-04-27T05:27:21;146217.53;;;8.28;79.02
6938;BME280;40040;42.706;23.372;2023-04-27T05:29:48;146281.56;;;8.54;79.66
6938;BME280;40040;42.706;23.372;2023-04-27T05:32:16;146232.34;;;8.34;78.81
6938;BME280;40040;42.706;23.372;2023-04-27T05:34:42;146237.25;;;8.36;79.09
6938;BME280;40040;42.706;23.372;2023-04-27T05:37:09;146247.13;;;8.40;79.13
6938;BME280;40040;42.706;23.372;2023-04-27T05:39:36;146218.78;;;8.29;78.28
6938;BME280;40040;42.706;23.372;2023-04-27T05:42:04;146206.47;;;8.24;79.40
6938;BME280;40040;42.706;23.372;2023-04-27T05:44:31;146217.53;;;8.28;78.89
6938;BME280;40040;42.706;23.372;2023-04-27T05:46:58;146253.25;;;8.43;78.08
6938;BME280;40040;42.706;23.372;2023-04-27T05:49:25;146236.03;;;8.36;77.99
6938;BME280;40040;42.706;23.372;2023-04-27T05:51:52;146239.72;;;8.37;78.99
6938;BME280;40040;42.706;23.372;2023-04-27T05:54:18;146244.66;;;8.39;78.38
6938;BME280;40040;42.706;23.372;2023-04-27T05:56:45;146195.34;;;8.19;78.33
6938;BME280;40040;42.706;23.372;2023-04-27T05:59:13;146296.38;;;8.60;78.49
6938;BME280;40040;42.706;23.372;2023-04-27T06:01:40;146306.25;;;8.64;77.68
6938;BME280;40040;42.706;23.372;2023-04-27T06:04:07;146301.31;;;8.62;78.15
6938;BME280;40040;42.706;23.372;2023-04-27T06:06:34;146361.69;;;8.87;77.14
6938;BME280;40040;42.706;23.372;2023-04-27T06:09:01;146367.81;;;8.89;77.15
6938;BME280;40040;42.706;23.372;2023-04-27T06:11:28;146388.75;;;8.98;77.09
6938;BME280;40040;42.706;23.372;2023-04-27T06:13:55;146376.44;;;8.93;77.28
6938;BME280;40040;42.706;23.372;2023-04-27T06:16:23;146375.25;;;8.92;76.32
6938;BME280;40040;42.706;23.372;2023-04-27T06:18:50;146374.00;;;8.92;76.92
6938;BME280;40040;42.706;23.372;2023-04-27T06:21:17;146440.53;;;9.19;76.58
6938;BME280;40040;42.706;23.372;2023-04-27T06:23:43;146457.78;;;9.26;76.47
6938;BME280;40040;42.706;23.372;2023-04-27T06:26:10;146479.97;;;9.35;75.57
6938;BME280;40040;42.706;23.372;2023-04-27T06:28:37;146491.03;;;9.40;75.98
6938;BME280;40040;42.706;23.372;2023-04-27T06:31:04;146518.19;;;9.51;75.69
6938;BME280;40040;42.706;23.372;2023-04-27T06:33:32;146552.69;;;9.65;75.49
6938;BME280;40040;42.706;23.372;2023-04-27T06:35:59;146592.16;;;9.81;74.09
6938;BME280;40040;42.706;23.372;2023-04-27T06:38:26;146646.41;;;10.03;73.27
6938;BME280;40040;42.706;23.372;2023-04-27T06:40:53;146703.19;;;10.26;73.92
6938;BME280;40040;42.706;23.372;2023-04-27T06:43:20;146858.66;;;10.89;72.16
6938;BME280;40040;42.706;23.372;2023-04-27T06:45:46;146977.13;;;11.38;70.27
6938;BME280;40040;42.706;23.372;2023-04-27T06:48:13;147084.59;;;11.81;68.82
6938;BME280;40040;42.706;23.372;2023-04-27T06:50:41;147143.88;;;12.05;66.66
6938;BME280;40040;42.706;23.372;2023-04-27T06:53:08;147164.88;;;12.14;64.75
6938;BME280;40040;42.706;23.372;2023-04-27T06:55:35;147182.16;;;12.21;64.44
6938;BME280;40040;42.706;23.372;2023-04-27T06:58:02;147258.75;;;12.52;64.50
6938;BME280;40040;42.706;23.372;2023-04-27T07:00:29;147273.63;;;12.58;63.54
6938;BME280;40040;42.706;23.372;2023-04-27T07:02:56;147355.19;;;12.91;62.82
6938;BME280;40040;42.706;23.372;2023-04-27T07:05:23;147389.84;;;13.05;62.87
6938;BME280;40040;42.706;23.372;2023-04-27T07:07:51;147451.63;;;13.30;62.07
6938;BME280;40040;42.706;23.372;2023-04-27T07:10:18;147482.53;;;13.43;62.02
6938;BME280;40040;42.706;23.372;2023-04-27T07:12:45;147520.88;;;13.58;61.21
6938;BME280;40040;42.706;23.372;2023-04-27T07:15:12;147543.13;;;13.68;61.29
6938;BME280;40040;42.706;23.372;2023-04-27T07:17:39;147663.13;;;14.16;60.04
6938;BME280;40040;42.706;23.372;2023-04-27T07:20:07;147634.69;;;14.05;60.46
6938;BME280;40040;42.706;23.372;2023-04-27T07:22:34;147671.78;;;14.20;60.51
6938;BME280;40040;42.706;23.372;2023-04-27T07:25:02;147702.78;;;14.32;57.81
6938;BME280;40040;42.706;23.372;2023-04-27T07:27:29;147739.88;;;14.47;59.04
6938;BME280;40040;42.706;23.372;2023-04-27T07:29:57;147730.00;;;14.43;58.40
6938;BME280;40040;42.706;23.372;2023-04-27T07:32:24;147681.69;;;14.24;58.76
6938;BME280;40040;42.706;23.372;2023-04-27T07:34:53;147632.19;;;14.04;60.65
6938;BME280;40040;42.706;23.372;2023-04-27T07:37:20;147624.78;;;14.01;57.98
6938;BME280;40040;42.706;23.372;2023-04-27T07:39:48;147602.50;;;13.92;58.21
6938;BME280;40040;42.706;23.372;2023-04-27T07:42:17;147562.91;;;13.76;59.06
6938;BME280;40040;42.706;23.372;2023-04-27T07:44:44;147590.13;;;13.87;57.97
6938;BME280;40040;42.706;23.372;2023-04-27T07:47:11;147600.03;;;13.91;58.43
6938;BME280;40040;42.706;23.372;2023-04-27T07:49:38;147580.22;;;13.83;56.73
6938;BME280;40040;42.706;23.372;2023-04-27T07:52:05;147572.81;;;13.80;57.18
6938;BME280;40040;42.706;23.372;2023-04-27T07:54:33;147524.56;;;13.60;57.86
6938;BME280;40040;42.706;23.372;2023-04-27T07:57:00;147581.47;;;13.83;58.47
6938;BME280;40040;42.706;23.372;2023-04-27T07:59:29;147649.50;;;14.11;58.57
6938;BME280;40040;42.706;23.372;2023-04-27T08:01:55;147697.81;;;14.30;58.50
6938;BME280;40040;42.706;23.372;2023-04-27T08:04:22;147763.41;;;14.57;57.10
6938;BME280;40040;42.706;23.372;2023-04-27T08:06:49;147753.50;;;14.53;57.91
6938;BME280;40040;42.706;23.372;2023-04-27T08:09:16;147817.84;;;14.79;57.17
6938;BME280;40040;42.706;23.372;2023-04-27T08:11:43;147784.44;;;14.65;57.08
6938;BME280;40040;42.706;23.372;2023-04-27T08:14:09;147713.88;;;14.37;55.37
6938;BME280;40040;42.706;23.372;2023-04-27T08:16:39;147822.81;;;14.81;57.52
6938;BME280;40040;42.706;23.372;2023-04-27T08:19:07;147895.84;;;15.11;55.96
6938;BME280;40040;42.706;23.372;2023-04-27T08:21:34;147859.94;;;14.96;55.26
6938;BME280;40040;42.706;23.372;2023-04-27T08:24:01;147878.50;;;15.04;55.00
6938;BME280;40040;42.706;23.372;2023-04-27T08:26:28;147921.84;;;15.21;56.63
6938;BME280;40040;42.706;23.372;2023-04-27T08:28:55;147981.31;;;15.45;56.29
6938;BME280;40040;42.706;23.372;2023-04-27T08:31:23;148080.41;;;15.86;53.50
6938;BME280;40040;42.706;23.372;2023-04-27T08:33:51;148173.28;;;16.23;52.82
6938;BME280;40040;42.706;23.372;2023-04-27T08:36:19;148246.47;;;16.53;53.24
6938;BME280;40040;42.706;23.372;2023-04-27T08:38:48;148359.25;;;16.99;52.13
6938;BME280;40040;42.706;23.372;2023-04-27T08:41:17;148442.34;;;17.32;49.09
6938;BME280;40040;42.706;23.372;2023-04-27T08:43:45;148380.34;;;17.07;47.56
6938;BME280;40040;42.706;23.372;2023-04-27T08:46:17;148125.00;;;16.04;50.31
6938;BME280;40040;42.706;23.372;2023-04-27T08:48:44;147986.28;;;15.47;51.39
6938;BME280;40040;42.706;23.372;2023-04-27T08:51:14;147997.41;;;15.52;50.88
6938;BME280;40040;42.706;23.372;2023-04-27T08:53:47;148065.50;;;15.79;51.38
6938;BME280;40040;42.706;23.372;2023-04-27T08:56:14;148096.50;;;15.92;50.50
6938;BME280;40040;42.706;23.372;2023-04-27T08:58:41;147997.41;;;15.52;51.00
6938;BME280;40040;42.706;23.372;2023-04-27T09:01:07;148097.75;;;15.93;50.51
6938;BME280;40040;42.706;23.372;2023-04-27T09:03:35;148157.19;;;16.17;50.06
6938;BME280;40040;42.706;23.372;2023-04-27T09:06:02;148082.84;;;15.87;50.24
6938;BME280;40040;42.706;23.372;2023-04-27T09:08:40;148070.47;;;15.82;50.42
6938;BME280;40040;42.706;23.372;2023-04-27T09:11:06;148023.41;;;15.62;51.23
6938;BME280;40040;42.706;23.372;2023-04-27T09:13:34;148020.97;;;15.61;50.24
6938;BME280;40040;42.706;23.372;2023-04-27T09:16:01;148006.06;;;15.55;51.30
6938;BME280;40040;42.706;23.372;2023-04-27T09:18:28;147848.81;;;14.92;52.30
6938;BME280;40040;42.706;23.372;2023-04-27T09:20:58;147817.84;;;14.79;52.14
6938;BME280;40040;42.706;23.372;2023-04-27T09:23:25;147872.28;;;15.01;52.46
6938;BME280;40040;42.706;23.372;2023-04-27T09:25:54;147882.22;;;15.05;52.87
6938;BME280;40040;42.706;23.372;2023-04-27T09:28:23;147843.84;;;14.90;52.55
6938;BME280;40040;42.706;23.372;2023-04-27T09:30:51;147897.09;;;15.11;52.18
6938;BME280;40040;42.706;23.372;2023-04-27T09:33:21;147924.31;;;15.22;52.16
6938;BME280;40040;42.706;23.372;2023-04-27T09:35:49;147963.94;;;15.38;52.99
6938;BME280;40040;42.706;23.372;2023-04-27T09:38:16;148028.38;;;15.64;51.90
6938;BME280;40040;42.706;23.372;2023-04-27T09:40:43;148002.38;;;15.54;52.33
6938;BME280;40040;42.706;23.372;2023-04-27T09:43:12;147967.69;;;15.40;51.30
6938;BME280;40040;42.706;23.372;2023-04-27T09:45:39;148122.50;;;16.03;49.70
6938;BME280;40040;42.706;23.372;2023-04-27T09:48:07;148174.53;;;16.24;49.77
6938;BME280;40040;42.706;23.372;2023-04-27T09:50:34;148155.94;;;16.16;49.33
6938;BME280;40040;42.706;23.372;2023-04-27T09:53:02;148152.25;;;16.15;50.00
6938;BME280;40040;42.706;23.372;2023-04-27T09:55:33;148077.94;;;15.85;49.36
6938;BME280;40040;42.706;23.372;2023-04-27T09:58:11;147996.19;;;15.51;50.55
6938;BME280;40040;42.706;23.372;2023-04-27T10:00:56;147919.34;;;15.20;50.12
6938;BME280;40040;42.706;23.372;2023-04-27T10:03:29;147929.25;;;15.24;50.47
6938;BME280;40040;42.706;23.372;2023-04-27T10:06:37;147832.72;;;14.85;50.82
6938;BME280;40040;42.706;23.372;2023-04-27T10:09:09;147862.44;;;14.97;51.46
6938;BME280;40040;42.706;23.372;2023-04-27T10:11:39;147869.84;;;15.00;50.62
6938;BME280;40040;42.706;23.372;2023-04-27T10:14:08;147904.50;;;15.14;50.44
6938;BME280;40040;42.706;23.372;2023-04-27T10:16:43;147928.00;;;15.24;51.71
6938;BME280;40040;42.706;23.372;2023-04-27T10:19:10;147939.19;;;15.28;50.97
6938;BME280;40040;42.706;23.372;2023-04-27T10:21:38;147926.81;;;15.23;51.21
6938;BME280;40040;42.706;23.372;2023-04-27T10:24:16;147867.38;;;14.99;51.06
6938;BME280;40040;42.706;23.372;2023-04-27T10:26:45;147877.25;;;15.03;49.98
6938;BME280;40040;42.706;23.372;2023-04-27T10:29:12;147887.16;;;15.07;51.41
6938;BME280;40040;42.706;23.372;2023-04-27T10:31:46;148003.63;;;15.54;50.94
6938;BME280;40040;42.706;23.372;2023-04-27T10:34:16;148103.97;;;15.95;48.98
6938;BME280;40040;42.706;23.372;2023-04-27T10:36:43;148199.31;;;16.34;48.71
6938;BME280;40040;42.706;23.372;2023-04-27T10:39:15;148210.50;;;16.38;48.08
6938;BME280;40040;42.706;23.372;2023-04-27T10:41:49;148084.09;;;15.87;48.60
6938;BME280;40040;42.706;23.372;2023-04-27T10:44:16;148028.38;;;15.64;48.93
6938;BME280;40040;42.706;23.372;2023-04-27T10:46:51;147909.47;;;15.16;49.54
6938;BME280;40040;42.706;23.372;2023-04-27T10:49:18;147903.25;;;15.14;49.27
6938;BME280;40040;42.706;23.372;2023-04-27T10:51:45;147879.75;;;15.04;50.60
6938;BME280;40040;42.706;23.372;2023-04-27T10:54:14;147899.53;;;15.12;49.17
6938;BME280;40040;42.706;23.372;2023-04-27T10:56:41;147914.44;;;15.18;49.56
6938;BME280;40040;42.706;23.372;2023-04-27T10:59:08;147882.22;;;15.05;49.03
6938;BME280;40040;42.706;23.372;2023-04-27T11:01:35;147889.63;;;15.08;48.95
6938;BME280;40040;42.706;23.372;2023-04-27T11:04:04;147919.34;;;15.20;48.64
6938;BME280;40040;42.706;23.372;2023-04-27T11:06:31;147941.63;;;15.29;49.03
6938;BME280;40040;42.706;23.372;2023-04-27T11:08:58;148001.13;;;15.53;50.66
6938;BME280;40040;42.706;23.372;2023-04-27T11:11:25;148020.97;;;15.61;49.04
6938;BME280;40040;42.706;23.372;2023-04-27T11:13:54;147968.94;;;15.40;47.78
6938;BME280;40040;42.706;23.372;2023-04-27T11:16:21;147882.22;;;15.05;49.43
6938;BME280;40040;42.706;23.372;2023-04-27T11:18:48;147878.50;;;15.04;50.00
6938;BME280;40040;42.706;23.372;2023-04-27T11:21:18;147893.38;;;15.10;49.96
6938;BME280;40040;42.706;23.372;2023-04-27T11:23:46;147916.88;;;15.19;50.24
6938;BME280;40040;42.706;23.372;2023-04-27T11:26:15;147963.94;;;15.38;48.89
6938;BME280;40040;42.706;23.372;2023-04-27T11:28:42;147986.28;;;15.47;48.94
6938;BME280;40040;42.706;23.372;2023-04-27T11:31:10;147998.66;;;15.52;47.21
6938;BME280;40040;42.706;23.372;2023-04-27T11:33:37;147987.53;;;15.48;47.87
6938;BME280;40040;42.706;23.372;2023-04-27T11:36:15;148002.38;;;15.54;47.28
6938;BME280;40040;42.706;23.372;2023-04-27T11:38:43;147993.69;;;15.50;47.90
6938;BME280;40040;42.706;23.372;2023-04-27T11:41:10;147981.31;;;15.45;50.02
6938;BME280;40040;42.706;23.372;2023-04-27T11:43:40;148001.13;;;15.53;49.01
6938;BME280;40040;42.706;23.372;2023-04-27T11:46:07;148046.97;;;15.72;48.57
6938;BME280;40040;42.706;23.372;2023-04-27T11:48:36;148058.09;;;15.76;48.91
6938;BME280;40040;42.706;23.372;2023-04-27T11:51:04;148028.38;;;15.64;47.73
6938;BME280;40040;42.706;23.372;2023-04-27T11:53:32;148016.00;;;15.59;47.14
6938;BME280;40040;42.706;23.372;2023-04-27T11:56:01;147942.88;;;15.30;48.46
6938;BME280;40040;42.706;23.372;2023-04-27T11:58:32;147956.50;;;15.35;49.16
6938;BME280;40040;42.706;23.372;2023-04-27T12:00:58;147946.59;;;15.31;49.10
6938;BME280;40040;42.706;23.372;2023-04-27T12:03:26;147956.50;;;15.35;49.21
6938;BME280;40040;42.706;23.372;2023-04-27T12:05:55;147888.41;;;15.08;47.71
6938;BME280;40040;42.706;23.372;2023-04-27T12:08:22;147854.97;;;14.94;47.99
6938;BME280;40040;42.706;23.372;2023-04-27T12:10:49;147820.34;;;14.80;49.20
6938;BME280;40040;42.706;23.372;2023-04-27T12:13:18;147773.28;;;14.61;49.99
6938;BME280;40040;42.706;23.372;2023-04-27T12:15:44;147780.75;;;14.64;50.59
6938;BME280;40040;42.706;23.372;2023-04-27T12:18:11;147854.97;;;14.94;50.15
6938;BME280;40040;42.706;23.372;2023-04-27T12:20:38;147919.34;;;15.20;47.75
6938;BME280;40040;42.706;23.372;2023-04-27T12:23:05;147972.66;;;15.42;47.90
6938;BME280;40040;42.706;23.372;2023-04-27T12:25:32;147973.91;;;15.42;49.57
6938;BME280;40040;42.706;23.372;2023-04-27T12:27:59;147972.66;;;15.42;47.73
6938;BME280;40040;42.706;23.372;2023-04-27T12:30:27;147972.66;;;15.42;47.62
6938;BME280;40040;42.706;23.372;2023-04-27T12:32:54;147949.09;;;15.32;49.08
6938;BME280;40040;42.706;23.372;2023-04-27T12:35:21;147996.19;;;15.51;48.45
6938;BME280;40040;42.706;23.372;2023-04-27T12:37:47;148007.31;;;15.56;47.54
6938;BME280;40040;42.706;23.372;2023-04-27T12:40:14;147977.59;;;15.44;46.59
6938;BME280;40040;42.706;23.372;2023-04-27T12:42:41;148008.56;;;15.56;48.78
6938;BME280;40040;42.706;23.372;2023-04-27T12:45:09;147920.59;;;15.21;47.79
6938;BME280;40040;42.706;23.372;2023-04-27T12:47:37;147972.66;;;15.42;48.87
6938;BME280;40040;42.706;23.372;2023-04-27T12:50:05;147966.44;;;15.39;50.02
6938;BME280;40040;42.706;23.372;2023-04-27T12:52:33;147983.78;;;15.46;47.71
6938;BME280;40040;42.706;23.372;2023-04-27T12:55:00;148013.53;;;15.58;48.57
6938;BME280;40040;42.706;23.372;2023-04-27T12:57:30;148056.84;;;15.76;47.13